sensor_id;sensor_type;location;lat;lon;timestamp;pressure;altitude;pressure_sealevel;temperature;humidity
74466;BME280;62916;50.044;15.938;2023-03-01T00:00:47;100303.61;;;20.05;51.61
74466;BME280;62916;50.044;15.938;2023-03-01T00:03:18;100294.85;;;19.99;51.56
74466;BME280;62916;50.044;15.938;2023-03-01T00:05:50;100299.40;;;20.00;51.55
74466;BME280;62916;50.044;15.938;2023-03-01T00:08:20;100293.04;;;19.98;51.61
74466;BME280;62916;50.044;15.938;2023-03-01T00:11:01;100295.14;;;19.94;51.56
74466;BME280;62916;50.044;15.938;2023-03-01T00:13:32;100295.89;;;19.92;51.61
74466;BME280;62916;50.044;15.938;2023-03-01T00:16:06;100294.37;;;19.90;51.63
74466;BME280;62916;50.044;15.938;2023-03-01T00:18:39;100288.14;;;19.84;51.70
74466;BME280;62916;50.044;15.938;2023-03-01T00:21:09;100288.69;;;19.86;51.73
74466;BME280;62916;50.044;15.938;2023-03-01T00:23:41;100293.80;;;19.83;51.80
74466;BME280;62916;50.044;15.938;2023-03-01T00:26:14;100295.26;;;19.82;51.77
74466;BME280;62916;50.044;15.938;2023-03-01T00:28:45;100299.25;;;19.79;51.81
74466;BME280;62916;50.044;15.938;2023-03-01T00:31:18;100292.63;;;19.72;51.84
74466;BME280;62916;50.044;15.938;2023-03-01T00:33:51;100302.47;;;19.75;51.81
74466;BME280;62916;50.044;15.938;2023-03-01T00:36:23;100303.52;;;19.73;51.83
74466;BME280;62916;50.044;15.938;2023-03-01T00:38:55;100304.13;;;19.70;51.92
74466;BME280;62916;50.044;15.938;2023-03-01T00:41:26;100297.71;;;19.69;51.83
74466;BME280;62916;50.044;15.938;2023-03-01T00:43:57;100291.74;;;19.67;51.88
74466;BME280;62916;50.044;15.938;2023-03-01T00:46:28;100263.48;;;19.50;51.98
74466;BME280;62916;50.044;15.938;2023-03-01T00:49:00;100285.98;;;19.61;52.07
74466;BME280;62916;50.044;15.938;2023-03-01T00:51:31;100286.77;;;19.59;52.02
74466;BME280;62916;50.044;15.938;2023-03-01T00:54:03;100266.02;;;19.47;52.12
74466;BME280;62916;50.044;15.938;2023-03-01T00:56:34;100282.95;;;19.56;52.04
74466;BME280;62916;50.044;15.938;2023-03-01T00:59:05;100279.53;;;19.54;52.12
74466;BME280;62916;50.044;15.938;2023-03-01T01:01:36;100276.84;;;19.51;52.17
74466;BME280;62916;50.044;15.938;2023-03-01T01:04:09;100271.71;;;19.48;52.33
74466;BME280;62916;50.044;15.938;2023-03-01T01:06:41;100275.11;;;19.47;52.42
74466;BME280;62916;50.044;15.938;2023-03-01T01:09:15;100277.48;;;19.44;52.48
74466;BME280;62916;50.044;15.938;2023-03-01T01:11:48;100276.84;;;19.42;52.57
74466;BME280;62916;50.044;15.938;2023-03-01T01:14:20;100278.96;;;19.41;52.55
74466;BME280;62916;50.044;15.938;2023-03-01T01:16:51;100279.81;;;19.41;52.49
74466;BME280;62916;50.044;15.938;2023-03-01T01:19:22;100277.50;;;19.39;52.41
74466;BME280;62916;50.044;15.938;2023-03-01T01:21:53;100273.23;;;19.36;52.35
74466;BME280;62916;50.044;15.938;2023-03-01T01:24:23;100274.75;;;19.39;52.39
74466;BME280;62916;50.044;15.938;2023-03-01T01:26:54;100273.00;;;19.37;52.29
74466;BME280;62916;50.044;15.938;2023-03-01T01:29:25;100270.20;;;19.36;52.30
74466;BME280;62916;50.044;15.938;2023-03-01T01:31:56;100262.88;;;19.34;52.34
74466;BME280;62916;50.044;15.938;2023-03-01T01:34:26;100263.40;;;19.32;52.33
74466;BME280;62916;50.044;15.938;2023-03-01T01:36:57;100262.73;;;19.30;52.26
74466;BME280;62916;50.044;15.938;2023-03-01T01:39:32;100260.92;;;19.28;52.26
74466;BME280;62916;50.044;15.938;2023-03-01T01:42:02;100263.52;;;19.26;52.37
74466;BME280;62916;50.044;15.938;2023-03-01T01:44:35;100262.01;;;19.24;52.34
74466;BME280;62916;50.044;15.938;2023-03-01T01:47:07;100258.20;;;19.21;52.29
74466;BME280;62916;50.044;15.938;2023-03-01T01:49:47;100258.26;;;19.19;52.36
74466;BME280;62916;50.044;15.938;2023-03-01T01:52:22;100250.38;;;19.17;52.47
74466;BME280;62916;50.044;15.938;2023-03-01T01:54:57;100246.83;;;19.15;52.46
74466;BME280;62916;50.044;15.938;2023-03-01T01:57:36;100246.50;;;19.13;52.54
74466;BME280;62916;50.044;15.938;2023-03-01T02:00:11;100242.80;;;19.12;52.45
74466;BME280;62916;50.044;15.938;2023-03-01T02:02:43;100240.50;;;19.10;52.40
74466;BME280;62916;50.044;15.938;2023-03-01T02:05:19;100235.10;;;19.08;52.50
74466;BME280;62916;50.044;15.938;2023-03-01T02:07:53;100237.45;;;19.06;52.51
74466;BME280;62916;50.044;15.938;2023-03-01T02:10:24;100231.10;;;19.05;52.46
74466;BME280;62916;50.044;15.938;2023-03-01T02:12:56;100231.66;;;19.05;52.48
74466;BME280;62916;50.044;15.938;2023-03-01T02:15:28;100233.98;;;19.05;52.46
74466;BME280;62916;50.044;15.938;2023-03-01T02:18:00;100221.95;;;18.96;52.45
74466;BME280;62916;50.044;15.938;2023-03-01T02:20:37;100239.95;;;19.02;52.44
74466;BME280;62916;50.044;15.938;2023-03-01T02:23:11;100240.85;;;18.99;52.55
74466;BME280;62916;50.044;15.938;2023-03-01T02:25:48;100239.11;;;18.93;52.58
74466;BME280;62916;50.044;15.938;2023-03-01T02:28:31;100249.16;;;18.95;52.55
74466;BME280;62916;50.044;15.938;2023-03-01T02:31:03;100236.30;;;18.85;52.69
74466;BME280;62916;50.044;15.938;2023-03-01T02:33:54;100243.77;;;18.95;52.59
74466;BME280;62916;50.044;15.938;2023-03-01T02:36:26;100241.86;;;18.93;52.57
74466;BME280;62916;50.044;15.938;2023-03-01T02:39:03;100242.83;;;18.93;52.57
74466;BME280;62916;50.044;15.938;2023-03-01T02:41:38;100236.48;;;18.92;52.51
74466;BME280;62916;50.044;15.938;2023-03-01T02:44:10;100231.31;;;18.91;52.50
74466;BME280;62916;50.044;15.938;2023-03-01T02:46:46;100225.46;;;18.90;52.58
74466;BME280;62916;50.044;15.938;2023-03-01T02:49:26;100224.44;;;18.87;52.63
74466;BME280;62916;50.044;15.938;2023-03-01T02:52:20;100226.52;;;18.86;52.63
74466;BME280;62916;50.044;15.938;2023-03-01T02:54:58;100227.64;;;18.86;52.58
74466;BME280;62916;50.044;15.938;2023-03-01T02:57:31;100226.41;;;18.84;52.59
74466;BME280;62916;50.044;15.938;2023-03-01T03:00:05;100225.92;;;18.81;52.63
74466;BME280;62916;50.044;15.938;2023-03-01T03:02:37;100224.85;;;18.80;52.65
74466;BME280;62916;50.044;15.938;2023-03-01T03:05:13;100221.76;;;18.80;52.64
74466;BME280;62916;50.044;15.938;2023-03-01T03:07:45;100225.02;;;18.78;52.73
74466;BME280;62916;50.044;15.938;2023-03-01T03:10:20;100226.02;;;18.74;52.61
74466;BME280;62916;50.044;15.938;2023-03-01T03:12:53;100231.27;;;18.72;52.69
74466;BME280;62916;50.044;15.938;2023-03-01T03:15:24;100235.14;;;18.72;52.72
74466;BME280;62916;50.044;15.938;2023-03-01T03:17:56;100232.39;;;18.71;52.71
74466;BME280;62916;50.044;15.938;2023-03-01T03:20:28;100228.39;;;18.70;52.72
74466;BME280;62916;50.044;15.938;2023-03-01T03:22:59;100222.38;;;18.67;52.77
74466;BME280;62916;50.044;15.938;2023-03-01T03:25:30;100216.87;;;18.65;52.78
74466;BME280;62916;50.044;15.938;2023-03-01T03:28:01;100207.48;;;18.63;52.83
74466;BME280;62916;50.044;15.938;2023-03-01T03:30:32;100204.91;;;18.61;52.79
74466;BME280;62916;50.044;15.938;2023-03-01T03:33:04;100198.95;;;18.52;52.92
74466;BME280;62916;50.044;15.938;2023-03-01T03:35:39;100206.91;;;18.57;53.02
74466;BME280;62916;50.044;15.938;2023-03-01T03:38:14;100206.73;;;18.56;52.91
74466;BME280;62916;50.044;15.938;2023-03-01T03:40:49;100200.54;;;18.55;52.90
74466;BME280;62916;50.044;15.938;2023-03-01T03:43:22;100190.20;;;18.53;53.03
74466;BME280;62916;50.044;15.938;2023-03-01T03:45:53;100187.75;;;18.52;53.06
74466;BME280;62916;50.044;15.938;2023-03-01T03:48:27;100188.35;;;18.49;53.16
74466;BME280;62916;50.044;15.938;2023-03-01T03:50:58;100188.69;;;18.47;53.16
74466;BME280;62916;50.044;15.938;2023-03-01T03:53:29;100191.55;;;18.46;53.20
74466;BME280;62916;50.044;15.938;2023-03-01T03:56:00;100189.41;;;18.45;53.23
74466;BME280;62916;50.044;15.938;2023-03-01T03:58:31;100158.98;;;18.27;53.17
74466;BME280;62916;50.044;15.938;2023-03-01T04:01:02;100183.42;;;18.42;53.31
74466;BME280;62916;50.044;15.938;2023-03-01T04:03:33;100187.19;;;18.40;53.27
74466;BME280;62916;50.044;15.938;2023-03-01T04:06:05;100190.60;;;18.39;53.23
74466;BME280;62916;50.044;15.938;2023-03-01T04:08:36;100197.06;;;18.39;53.20
74466;BME280;62916;50.044;15.938;2023-03-01T04:11:07;100195.04;;;18.38;53.21
74466;BME280;62916;50.044;15.938;2023-03-01T04:13:52;100193.07;;;18.37;53.15
74466;BME280;62916;50.044;15.938;2023-03-01T04:16:24;100191.94;;;18.34;53.20
74466;BME280;62916;50.044;15.938;2023-03-01T04:18:55;100194.23;;;18.32;53.34
74466;BME280;62916;50.044;15.938;2023-03-01T04:21:29;100189.69;;;18.33;53.35
74466;BME280;62916;50.044;15.938;2023-03-01T04:24:00;100192.13;;;18.32;53.25
74466;BME280;62916;50.044;15.938;2023-03-01T04:26:33;100190.66;;;18.30;53.22
74466;BME280;62916;50.044;15.938;2023-03-01T04:29:03;100187.40;;;18.29;53.28
74466;BME280;62916;50.044;15.938;2023-03-01T04:31:34;100183.96;;;18.27;53.16
74466;BME280;62916;50.044;15.938;2023-03-01T04:34:05;100179.75;;;18.23;53.25
74466;BME280;62916;50.044;15.938;2023-03-01T04:36:36;100192.39;;;18.25;53.32
74466;BME280;62916;50.044;15.938;2023-03-01T04:39:07;100196.59;;;18.24;53.26
74466;BME280;62916;50.044;15.938;2023-03-01T04:41:42;100197.04;;;18.22;53.29
74466;BME280;62916;50.044;15.938;2023-03-01T04:44:13;100192.00;;;18.21;53.36
74466;BME280;62916;50.044;15.938;2023-03-01T04:46:44;100189.70;;;18.21;52.92
74466;BME280;62916;50.044;15.938;2023-03-01T04:49:15;100186.20;;;18.19;53.34
74466;BME280;62916;50.044;15.938;2023-03-01T04:51:46;100186.71;;;18.18;53.30
74466;BME280;62916;50.044;15.938;2023-03-01T04:54:16;100189.80;;;18.18;53.47
74466;BME280;62916;50.044;15.938;2023-03-01T04:56:47;100191.09;;;18.17;53.51
74466;BME280;62916;50.044;15.938;2023-03-01T04:59:18;100196.59;;;18.17;53.53
74466;BME280;62916;50.044;15.938;2023-03-01T05:01:52;100191.36;;;18.16;53.55
74466;BME280;62916;50.044;15.938;2023-03-01T05:04:25;100188.56;;;18.17;53.56
74466;BME280;62916;50.044;15.938;2023-03-01T05:06:55;100188.05;;;18.16;53.49
74466;BME280;62916;50.044;15.938;2023-03-01T05:09:28;100183.89;;;18.16;53.47
74466;BME280;62916;50.044;15.938;2023-03-01T05:11:58;100180.24;;;18.17;53.34
74466;BME280;62916;50.044;15.938;2023-03-01T05:14:30;100175.75;;;18.17;53.35
74466;BME280;62916;50.044;15.938;2023-03-01T05:17:00;100177.90;;;18.19;53.47
74466;BME280;62916;50.044;15.938;2023-03-01T05:19:34;100180.77;;;18.20;53.67
74466;BME280;62916;50.044;15.938;2023-03-01T05:22:05;100188.35;;;18.23;53.82
74466;BME280;62916;50.044;15.938;2023-03-01T05:24:36;100186.20;;;18.26;53.89
74466;BME280;62916;50.044;15.938;2023-03-01T05:27:08;100187.07;;;18.30;54.01
74466;BME280;62916;50.044;15.938;2023-03-01T05:29:39;100183.52;;;18.33;54.06
74466;BME280;62916;50.044;15.938;2023-03-01T05:32:10;100178.80;;;18.34;54.13
74466;BME280;62916;50.044;15.938;2023-03-01T05:34:45;100180.71;;;18.39;54.14
74466;BME280;62916;50.044;15.938;2023-03-01T05:37:16;100179.64;;;18.42;54.13
74466;BME280;62916;50.044;15.938;2023-03-01T05:39:47;100180.59;;;18.45;54.07
74466;BME280;62916;50.044;15.938;2023-03-01T05:42:20;100180.38;;;18.48;53.91
74466;BME280;62916;50.044;15.938;2023-03-01T05:44:50;100178.80;;;18.52;53.72
74466;BME280;62916;50.044;15.938;2023-03-01T05:47:21;100178.39;;;18.54;53.63
74466;BME280;62916;50.044;15.938;2023-03-01T05:49:54;100179.20;;;18.56;53.62
74466;BME280;62916;50.044;15.938;2023-03-01T05:52:25;100181.23;;;18.58;53.50
74466;BME280;62916;50.044;15.938;2023-03-01T05:54:56;100185.85;;;18.59;53.41
74466;BME280;62916;50.044;15.938;2023-03-01T05:57:29;100177.20;;;18.51;53.35
74466;BME280;62916;50.044;15.938;2023-03-01T06:00:00;100189.73;;;18.60;53.33
74466;BME280;62916;50.044;15.938;2023-03-01T06:02:31;100191.54;;;18.62;53.33
74466;BME280;62916;50.044;15.938;2023-03-01T06:05:02;100160.48;;;18.45;53.13
74466;BME280;62916;50.044;15.938;2023-03-01T06:07:33;100193.54;;;18.65;53.07
74466;BME280;62916;50.044;15.938;2023-03-01T06:10:07;100195.22;;;18.66;53.08
74466;BME280;62916;50.044;15.938;2023-03-01T06:12:40;100193.55;;;18.66;53.00
74466;BME280;62916;50.044;15.938;2023-03-01T06:15:15;100188.20;;;18.66;52.81
74466;BME280;62916;50.044;15.938;2023-03-01T06:17:47;100185.00;;;18.66;52.84
74466;BME280;62916;50.044;15.938;2023-03-01T06:20:21;100183.53;;;18.63;52.75
74466;BME280;62916;50.044;15.938;2023-03-01T06:22:52;100187.75;;;18.66;52.71
74466;BME280;62916;50.044;15.938;2023-03-01T06:25:25;100189.55;;;18.65;52.76
74466;BME280;62916;50.044;15.938;2023-03-01T06:27:57;100188.14;;;18.64;52.69
74466;BME280;62916;50.044;15.938;2023-03-01T06:30:28;100186.23;;;18.64;52.67
74466;BME280;62916;50.044;15.938;2023-03-01T06:32:59;100182.88;;;18.63;52.58
74466;BME280;62916;50.044;15.938;2023-03-01T06:35:31;100188.61;;;18.62;52.55
74466;BME280;62916;50.044;15.938;2023-03-01T06:38:04;100175.01;;;18.51;52.59
74466;BME280;62916;50.044;15.938;2023-03-01T06:40:35;100196.60;;;18.61;52.48
74466;BME280;62916;50.044;15.938;2023-03-01T06:43:07;100169.18;;;18.44;52.42
74466;BME280;62916;50.044;15.938;2023-03-01T06:45:38;100195.41;;;18.59;52.41
74466;BME280;62916;50.044;15.938;2023-03-01T06:48:09;100196.91;;;18.58;52.40
74466;BME280;62916;50.044;15.938;2023-03-01T06:50:40;100204.19;;;18.56;52.38
74466;BME280;62916;50.044;15.938;2023-03-01T06:53:11;100205.77;;;18.55;52.30
74466;BME280;62916;50.044;15.938;2023-03-01T06:55:41;100202.89;;;18.53;52.25
74466;BME280;62916;50.044;15.938;2023-03-01T06:58:12;100204.88;;;18.52;52.33
74466;BME280;62916;50.044;15.938;2023-03-01T07:00:43;100205.05;;;18.50;52.24
74466;BME280;62916;50.044;15.938;2023-03-01T07:03:16;100207.34;;;18.49;52.31
74466;BME280;62916;50.044;15.938;2023-03-01T07:05:49;100211.50;;;18.49;52.22
74466;BME280;62916;50.044;15.938;2023-03-01T07:08:21;100213.25;;;18.48;52.24
74466;BME280;62916;50.044;15.938;2023-03-01T07:10:57;100212.39;;;18.47;52.27
74466;BME280;62916;50.044;15.938;2023-03-01T07:13:28;100216.16;;;18.46;52.09
74466;BME280;62916;50.044;15.938;2023-03-01T07:15:58;100217.00;;;18.44;52.22
74466;BME280;62916;50.044;15.938;2023-03-01T07:18:30;100215.03;;;18.43;52.11
74466;BME280;62916;50.044;15.938;2023-03-01T07:21:05;100211.23;;;18.41;52.21
74466;BME280;62916;50.044;15.938;2023-03-01T07:23:36;100209.52;;;18.39;52.07
74466;BME280;62916;50.044;15.938;2023-03-01T07:26:07;100209.24;;;18.38;52.21
74466;BME280;62916;50.044;15.938;2023-03-01T07:28:37;100214.19;;;18.37;52.06
74466;BME280;62916;50.044;15.938;2023-03-01T07:31:08;100189.16;;;18.20;52.07
74466;BME280;62916;50.044;15.938;2023-03-01T07:33:39;100190.80;;;18.19;52.06
74466;BME280;62916;50.044;15.938;2023-03-01T07:36:11;100209.48;;;18.30;52.08
74466;BME280;62916;50.044;15.938;2023-03-01T07:38:41;100207.27;;;18.29;52.12
74466;BME280;62916;50.044;15.938;2023-03-01T07:41:12;100207.38;;;18.27;52.11
74466;BME280;62916;50.044;15.938;2023-03-01T07:43:43;100204.06;;;18.26;52.12
74466;BME280;62916;50.044;15.938;2023-03-01T07:46:14;100198.44;;;18.24;52.09
74466;BME280;62916;50.044;15.938;2023-03-01T07:48:45;100197.89;;;18.22;52.18
74466;BME280;62916;50.044;15.938;2023-03-01T07:51:16;100195.32;;;18.21;52.07
74466;BME280;62916;50.044;15.938;2023-03-01T07:53:49;100192.05;;;18.19;52.12
74466;BME280;62916;50.044;15.938;2023-03-01T07:56:20;100189.92;;;18.18;52.10
74466;BME280;62916;50.044;15.938;2023-03-01T07:58:51;100178.90;;;18.12;52.23
74466;BME280;62916;50.044;15.938;2023-03-01T08:01:23;100184.51;;;18.15;52.21
74466;BME280;62916;50.044;15.938;2023-03-01T08:03:53;100184.89;;;18.14;52.06
74466;BME280;62916;50.044;15.938;2023-03-01T08:06:24;100184.61;;;18.13;52.16
74466;BME280;62916;50.044;15.938;2023-03-01T08:08:55;100182.98;;;18.12;52.09
74466;BME280;62916;50.044;15.938;2023-03-01T08:11:28;100182.32;;;18.11;52.01
74466;BME280;62916;50.044;15.938;2023-03-01T08:14:01;100183.17;;;18.09;52.08
74466;BME280;62916;50.044;15.938;2023-03-01T08:16:32;100185.86;;;18.08;52.01
74466;BME280;62916;50.044;15.938;2023-03-01T08:19:06;100187.25;;;18.07;52.09
74466;BME280;62916;50.044;15.938;2023-03-01T08:21:37;100188.38;;;18.06;52.06
74466;BME280;62916;50.044;15.938;2023-03-01T08:24:09;100186.18;;;18.06;52.05
74466;BME280;62916;50.044;15.938;2023-03-01T08:26:40;100184.88;;;18.05;52.10
74466;BME280;62916;50.044;15.938;2023-03-01T08:29:11;100187.01;;;18.03;51.94
74466;BME280;62916;50.044;15.938;2023-03-01T08:31:42;100189.27;;;18.01;52.05
74466;BME280;62916;50.044;15.938;2023-03-01T08:34:14;100184.33;;;17.99;52.04
74466;BME280;62916;50.044;15.938;2023-03-01T08:36:46;100181.96;;;17.97;52.07
74466;BME280;62916;50.044;15.938;2023-03-01T08:39:20;100183.52;;;17.96;51.98
74466;BME280;62916;50.044;15.938;2023-03-01T08:41:51;100173.02;;;17.94;52.03
74466;BME280;62916;50.044;15.938;2023-03-01T08:44:22;100168.08;;;17.92;52.12
74466;BME280;62916;50.044;15.938;2023-03-01T08:46:53;100168.02;;;17.93;52.03
74466;BME280;62916;50.044;15.938;2023-03-01T08:49:25;100165.33;;;17.93;52.10
74466;BME280;62916;50.044;15.938;2023-03-01T08:51:55;100164.27;;;17.94;51.96
74466;BME280;62916;50.044;15.938;2023-03-01T08:54:26;100160.50;;;17.96;51.98
74466;BME280;62916;50.044;15.938;2023-03-01T08:56:57;100159.79;;;17.97;51.69
74466;BME280;62916;50.044;15.938;2023-03-01T08:59:29;100152.88;;;17.97;51.86
74466;BME280;62916;50.044;15.938;2023-03-01T09:02:05;100150.30;;;17.98;51.85
74466;BME280;62916;50.044;15.938;2023-03-01T09:04:39;100148.05;;;17.97;51.76
74466;BME280;62916;50.044;15.938;2023-03-01T09:07:12;100137.66;;;17.96;51.80
74466;BME280;62916;50.044;15.938;2023-03-01T09:09:43;100136.91;;;17.94;51.95
74466;BME280;62916;50.044;15.938;2023-03-01T09:12:13;100137.36;;;17.92;51.85
74466;BME280;62916;50.044;15.938;2023-03-01T09:14:44;100139.33;;;17.92;51.88
74466;BME280;62916;50.044;15.938;2023-03-01T09:17:15;100136.20;;;17.90;51.95
74466;BME280;62916;50.044;15.938;2023-03-01T09:19:46;100138.39;;;17.88;52.02
74466;BME280;62916;50.044;15.938;2023-03-01T09:22:17;100133.71;;;17.86;52.00
74466;BME280;62916;50.044;15.938;2023-03-01T09:24:48;100129.11;;;17.85;51.95
74466;BME280;62916;50.044;15.938;2023-03-01T09:27:18;100123.27;;;17.85;51.98
74466;BME280;62916;50.044;15.938;2023-03-01T09:29:50;100106.92;;;17.75;52.00
74466;BME280;62916;50.044;15.938;2023-03-01T09:32:20;100118.11;;;17.80;52.02
74466;BME280;62916;50.044;15.938;2023-03-01T09:34:51;100117.27;;;17.79;51.98
74466;BME280;62916;50.044;15.938;2023-03-01T09:37:35;100117.20;;;17.77;52.14
74466;BME280;62916;50.044;15.938;2023-03-01T09:40:11;100118.66;;;17.76;52.10
74466;BME280;62916;50.044;15.938;2023-03-01T09:42:53;100116.02;;;17.74;52.12
74466;BME280;62916;50.044;15.938;2023-03-01T09:45:34;100117.30;;;17.74;52.17
74466;BME280;62916;50.044;15.938;2023-03-01T09:48:12;100120.05;;;17.73;52.16
74466;BME280;62916;50.044;15.938;2023-03-01T09:50:46;100118.92;;;17.74;52.08
74466;BME280;62916;50.044;15.938;2023-03-01T09:53:18;100115.06;;;17.75;52.03
74466;BME280;62916;50.044;15.938;2023-03-01T09:55:54;100111.59;;;17.73;52.06
74466;BME280;62916;50.044;15.938;2023-03-01T09:58:44;100116.98;;;17.75;51.99
74466;BME280;62916;50.044;15.938;2023-03-01T10:01:31;100112.42;;;17.73;51.99
74466;BME280;62916;50.044;15.938;2023-03-01T10:04:28;100112.41;;;17.72;51.89
74466;BME280;62916;50.044;15.938;2023-03-01T10:07:20;100108.26;;;17.73;51.99
74466;BME280;62916;50.044;15.938;2023-03-01T10:09:53;100110.17;;;17.71;52.12
74466;BME280;62916;50.044;15.938;2023-03-01T10:12:26;100105.75;;;17.69;52.00
74466;BME280;62916;50.044;15.938;2023-03-01T10:15:03;100104.34;;;17.68;52.11
74466;BME280;62916;50.044;15.938;2023-03-01T10:17:37;100101.82;;;17.67;52.11
74466;BME280;62916;50.044;15.938;2023-03-01T10:20:18;100104.39;;;17.66;52.11
74466;BME280;62916;50.044;15.938;2023-03-01T10:22:50;100103.94;;;17.64;52.11
74466;BME280;62916;50.044;15.938;2023-03-01T10:25:36;100098.77;;;17.65;52.11
74466;BME280;62916;50.044;15.938;2023-03-01T10:28:17;100097.66;;;17.68;52.02
74466;BME280;62916;50.044;15.938;2023-03-01T10:30:50;100094.41;;;17.68;52.09
74466;BME280;62916;50.044;15.938;2023-03-01T10:33:24;100078.05;;;17.57;52.01
74466;BME280;62916;50.044;15.938;2023-03-01T10:35:56;100085.42;;;17.65;52.06
74466;BME280;62916;50.044;15.938;2023-03-01T10:38:27;100082.27;;;17.64;52.05
74466;BME280;62916;50.044;15.938;2023-03-01T10:41:06;100054.07;;;17.50;52.03
74466;BME280;62916;50.044;15.938;2023-03-01T10:43:46;100075.21;;;17.65;52.05
74466;BME280;62916;50.044;15.938;2023-03-01T10:46:29;100072.63;;;17.65;52.00
74466;BME280;62916;50.044;15.938;2023-03-01T10:49:15;100065.44;;;17.63;52.06
74466;BME280;62916;50.044;15.938;2023-03-01T10:51:48;100064.37;;;17.63;51.99
74466;BME280;62916;50.044;15.938;2023-03-01T10:54:30;100059.72;;;17.64;51.94
74466;BME280;62916;50.044;15.938;2023-03-01T10:57:03;100026.63;;;17.48;52.00
74466;BME280;62916;50.044;15.938;2023-03-01T10:59:36;100047.60;;;17.65;51.88
74466;BME280;62916;50.044;15.938;2023-03-01T11:02:28;100043.56;;;17.64;51.84
74466;BME280;62916;50.044;15.938;2023-03-01T11:05:00;100039.02;;;17.66;51.81
74466;BME280;62916;50.044;15.938;2023-03-01T11:07:32;100039.26;;;17.68;51.88
74466;BME280;62916;50.044;15.938;2023-03-01T11:10:20;100037.08;;;17.70;51.69
74466;BME280;62916;50.044;15.938;2023-03-01T11:12:52;100038.06;;;17.71;51.85
74466;BME280;62916;50.044;15.938;2023-03-01T11:15:26;100023.30;;;17.64;51.80
74466;BME280;62916;50.044;15.938;2023-03-01T11:17:57;100027.02;;;17.69;51.80
74466;BME280;62916;50.044;15.938;2023-03-01T11:20:42;100025.39;;;17.70;51.83
74466;BME280;62916;50.044;15.938;2023-03-01T11:23:14;100020.52;;;17.70;51.81
74466;BME280;62916;50.044;15.938;2023-03-01T11:25:51;100016.98;;;17.69;51.91
74466;BME280;62916;50.044;15.938;2023-03-01T11:28:27;100011.54;;;17.68;51.82
74466;BME280;62916;50.044;15.938;2023-03-01T11:30:58;100005.48;;;17.67;51.75
74466;BME280;62916;50.044;15.938;2023-03-01T11:33:37;99982.23;;;17.57;51.76
74466;BME280;62916;50.044;15.938;2023-03-01T11:36:19;99988.86;;;17.63;51.70
74466;BME280;62916;50.044;15.938;2023-03-01T11:38:56;99988.86;;;17.66;51.78
74466;BME280;62916;50.044;15.938;2023-03-01T11:41:31;99989.03;;;17.66;51.80
74466;BME280;62916;50.044;15.938;2023-03-01T11:44:09;99985.11;;;17.66;51.88
74466;BME280;62916;50.044;15.938;2023-03-01T11:46:54;99976.02;;;17.67;51.77
74466;BME280;62916;50.044;15.938;2023-03-01T11:49:47;99970.23;;;17.67;51.89
74466;BME280;62916;50.044;15.938;2023-03-01T11:52:28;99969.78;;;17.66;51.72
74466;BME280;62916;50.044;15.938;2023-03-01T11:55:15;99971.42;;;17.67;51.73
74466;BME280;62916;50.044;15.938;2023-03-01T11:57:58;99969.91;;;17.70;51.67
74466;BME280;62916;50.044;15.938;2023-03-01T12:00:46;99969.73;;;17.69;51.65
74466;BME280;62916;50.044;15.938;2023-03-01T12:03:30;99967.44;;;17.69;51.76
74466;BME280;62916;50.044;15.938;2023-03-01T12:08:48;99964.05;;;17.72;51.57
74466;BME280;62916;50.044;15.938;2023-03-01T12:11:32;99953.73;;;17.72;51.56
74466;BME280;62916;50.044;15.938;2023-03-01T12:14:25;99950.86;;;17.72;51.51
74466;BME280;62916;50.044;15.938;2023-03-01T12:17:20;99942.84;;;17.71;51.58
74466;BME280;62916;50.044;15.938;2023-03-01T12:20:11;99945.55;;;17.71;51.53
74466;BME280;62916;50.044;15.938;2023-03-01T12:22:56;99943.34;;;17.71;51.56
74466;BME280;62916;50.044;15.938;2023-03-01T12:25:51;99939.86;;;17.72;51.44
74466;BME280;62916;50.044;15.938;2023-03-01T12:28:39;99937.06;;;17.72;51.55
74466;BME280;62916;50.044;15.938;2023-03-01T12:31:35;99931.67;;;17.72;51.50
74466;BME280;62916;50.044;15.938;2023-03-01T12:34:19;99927.14;;;17.71;51.52
74466;BME280;62916;50.044;15.938;2023-03-01T12:37:05;99923.31;;;17.72;51.53
74466;BME280;62916;50.044;15.938;2023-03-01T12:39:51;99918.77;;;17.72;51.41
74466;BME280;62916;50.044;15.938;2023-03-01T12:42:32;99902.51;;;17.61;51.51
74466;BME280;62916;50.044;15.938;2023-03-01T12:45:21;99917.92;;;17.72;51.45
74466;BME280;62916;50.044;15.938;2023-03-01T12:48:08;99915.80;;;17.76;51.36
74466;BME280;62916;50.044;15.938;2023-03-01T12:50:48;99916.30;;;17.76;51.34
74466;BME280;62916;50.044;15.938;2023-03-01T12:53:26;99885.33;;;17.60;51.34
74466;BME280;62916;50.044;15.938;2023-03-01T12:56:02;99909.23;;;17.75;51.38
74466;BME280;62916;50.044;15.938;2023-03-01T12:58:38;99910.64;;;17.73;51.28
74466;BME280;62916;50.044;15.938;2023-03-01T13:01:30;99907.20;;;17.73;51.41
74466;BME280;62916;50.044;15.938;2023-03-01T13:04:23;99900.42;;;17.72;51.35
74466;BME280;62916;50.044;15.938;2023-03-01T13:07:04;99893.29;;;17.72;51.32
74466;BME280;62916;50.044;15.938;2023-03-01T13:09:43;99890.83;;;17.71;51.47
74466;BME280;62916;50.044;15.938;2023-03-01T13:12:47;99890.21;;;17.72;51.39
74466;BME280;62916;50.044;15.938;2023-03-01T13:15:32;99883.92;;;17.72;51.39
74466;BME280;62916;50.044;15.938;2023-03-01T13:18:26;99877.54;;;17.67;51.37
74466;BME280;62916;50.044;15.938;2023-03-01T13:20:58;99885.05;;;17.72;51.43